Wetterdaten: Woche 23.05.11 - 29.05.11 (KW21)
Datum Zeit Temp. Innen Temp. Aussen UV X Diff Temp. Feuchte Inne Feuchte Auss Sonnenschein Luftdruck Regen ab 0,1 Wind Sonnenschein T Regendauer Windben
23.05.2011 00:00 22,2 C 13,4 C 0,1 UV-I 0,0 C 45 % 59 % 0 % 1024,1 hPa 0,0 l/m 0,6 km/h (0 Bft) 0,00 h 0,00 h 1,2 km/h (1 Bft)
23.05.2011 01:00 22,0 C 12,6 C 0,1 UV-I 0,0 C 45 % 63 % 0 % 1024,3 hPa 0,0 l/m 1,0 km/h (0 Bft) 0,00 h 0,00 h 1,8 km/h (1 Bft)
23.05.2011 02:00 21,7 C 12,1 C 0,1 UV-I 0,0 C 44 % 65 % 0 % 1024,7 hPa 0,0 l/m 2,3 km/h (1 Bft) 0,00 h 0,00 h 4,1 km/h (1 Bft)
23.05.2011 03:00 21,5 C 11,6 C 0,1 UV-I 0,0 C 44 % 68 % 0 % 1024,8 hPa 0,0 l/m 2,0 km/h (1 Bft) 0,00 h 0,00 h 2,9 km/h (1 Bft)
23.05.2011 04:00 21,3 C 11,1 C 0,1 UV-I 0,0 C 45 % 71 % 0 % 1024,8 hPa 0,0 l/m 1,5 km/h (1 Bft) 0,00 h 0,00 h 2,3 km/h (1 Bft)
23.05.2011 05:00 21,1 C 10,5 C 0,1 UV-I 0,0 C 45 % 73 % 0 % 1025,1 hPa 0,0 l/m 1,2 km/h (1 Bft) 0,00 h 0,00 h 1,7 km/h (1 Bft)
23.05.2011 06:00 20,9 C 10,4 C 0,4 UV-I 0,0 C 46 % 75 % 0 % 1025,2 hPa 0,0 l/m 1,8 km/h (1 Bft) 0,00 h 0,00 h 2,3 km/h (1 Bft)
23.05.2011 07:00 20,8 C 10,8 C 1,1 UV-I 0,0 C 46 % 75 % 0 % 1025,5 hPa 0,0 l/m 1,7 km/h (1 Bft) 0,00 h 0,00 h 3,1 km/h (1 Bft)
23.05.2011 08:00 20,8 C 12,6 C 2,6 UV-I 3,4 C 46 % 74 % 72 % 1025,7 hPa 0,0 l/m 3,9 km/h (1 Bft) 0,63 h 0,00 h 4,9 km/h (1 Bft)
23.05.2011 09:00 20,9 C 14,8 C 7,9 UV-I 6,2 C 47 % 68 % 100 % 1025,9 hPa 0,0 l/m 3,9 km/h (1 Bft) 1,00 h 0,00 h 5,9 km/h (2 Bft)
23.05.2011 10:00 21,1 C 16,5 C 8,4 UV-I 6,2 C 47 % 61 % 100 % 1025,9 hPa 0,0 l/m 6,4 km/h (2 Bft) 1,00 h 0,00 h 7,6 km/h (2 Bft)
23.05.2011 11:00 21,2 C 18,3 C 6,1 UV-I 6,2 C 46 % 51 % 100 % 1025,5 hPa 0,0 l/m 6,8 km/h (2 Bft) 1,00 h 0,00 h 8,8 km/h (2 Bft)
23.05.2011 12:00 21,5 C 19,6 C 2,5 UV-I 5,5 C 44 % 40 % 100 % 1025,2 hPa 0,0 l/m 8,1 km/h (2 Bft) 1,00 h 0,00 h 9,4 km/h (2 Bft)
23.05.2011 13:00 21,9 C 20,6 C 3,8 UV-I 5,3 C 42 % 38 % 100 % 1024,9 hPa 0,0 l/m 7,5 km/h (2 Bft) 1,00 h 0,00 h 9,8 km/h (2 Bft)
23.05.2011 14:00 23,0 C 22,0 C 4,7 UV-I 5,3 C 41 % 35 % 100 % 1024,6 hPa 0,0 l/m 6,5 km/h (2 Bft) 1,00 h 0,17 h 7,3 km/h (2 Bft)
23.05.2011 15:00 24,3 C 22,6 C 7,3 UV-I 5,4 C 39 % 35 % 100 % 1024,4 hPa 0,0 l/m 6,0 km/h (2 Bft) 1,00 h 0,00 h 7,9 km/h (2 Bft)
23.05.2011 16:00 25,0 C 23,6 C 8,0 UV-I 5,1 C 38 % 34 % 100 % 1024,0 hPa 0,0 l/m 5,9 km/h (2 Bft) 1,00 h 0,00 h 7,8 km/h (2 Bft)
23.05.2011 17:00 25,4 C 23,5 C 5,5 UV-I 4,2 C 37 % 35 % 97 % 1023,1 hPa 0,0 l/m 5,3 km/h (1 Bft) 1,00 h 0,50 h 5,9 km/h (2 Bft)
23.05.2011 18:00 25,3 C 23,3 C 2,0 UV-I 2,3 C 37 % 35 % 61 % 1022,1 hPa 0,0 l/m 5,3 km/h (1 Bft) 0,47 h 0,93 h 6,3 km/h (2 Bft)
23.05.2011 19:00 24,7 C 23,1 C 1,3 UV-I 0,0 C 38 % 36 % 0 % 1021,0 hPa 0,0 l/m 3,9 km/h (1 Bft) 0,00 h 0,47 h 5,5 km/h (1 Bft)
23.05.2011 20:00 24,2 C 22,4 C 0,6 UV-I 0,0 C 39 % 38 % 0 % 1020,6 hPa 0,0 l/m 1,8 km/h (1 Bft) 0,00 h 0,00 h 2,0 km/h (1 Bft)
23.05.2011 21:00 23,9 C 21,0 C 0,2 UV-I 0,0 C 40 % 42 % 0 % 1020,3 hPa 0,0 l/m 0,1 km/h (0 Bft) 0,00 h 0,00 h 0,3 km/h (0 Bft)
23.05.2011 22:00 23,5 C 19,9 C 0,1 UV-I 0,0 C 41 % 46 % 0 % 1020,5 hPa 0,0 l/m 1,3 km/h (1 Bft) 0,00 h 0,00 h 2,0 km/h (1 Bft)
23.05.2011 23:00 23,2 C 18,9 C 0,1 UV-I 0,0 C 42 % 49 % 0 % 1020,0 hPa 0,0 l/m 1,1 km/h (1 Bft) 0,00 h 0,00 h 2,2 km/h (1 Bft)
24.05.2011 00:00 23,0 C 18,3 C 0,1 UV-I 0,0 C 43 % 52 % 0 % 1019,2 hPa 0,0 l/m 2,6 km/h (1 Bft) 0,00 h 0,00 h 3,3 km/h (1 Bft)
24.05.2011 01:00 22,7 C 17,7 C 0,1 UV-I 0,0 C 44 % 55 % 0 % 1019,5 hPa 0,0 l/m 2,8 km/h (1 Bft) 0,00 h 0,00 h 3,3 km/h (1 Bft)
24.05.2011 02:00 22,6 C 16,3 C 0,1 UV-I 0,0 C 45 % 59 % 0 % 1020,0 hPa 0,0 l/m 1,1 km/h (1 Bft) 0,00 h 0,00 h 1,9 km/h (1 Bft)
24.05.2011 03:00 22,3 C 14,9 C 0,1 UV-I 0,0 C 45 % 63 % 0 % 1020,1 hPa 0,0 l/m 0,3 km/h (0 Bft) 0,00 h 0,00 h 0,8 km/h (0 Bft)
24.05.2011 04:00 22,2 C 14,5 C 0,1 UV-I 0,0 C 46 % 66 % 0 % 1020,2 hPa 0,0 l/m 1,4 km/h (1 Bft) 0,00 h 0,00 h 1,8 km/h (1 Bft)
24.05.2011 05:00 22,0 C 14,3 C 0,1 UV-I 0,0 C 46 % 69 % 0 % 1020,7 hPa 0,0 l/m 2,3 km/h (1 Bft) 0,00 h 0,00 h 3,2 km/h (1 Bft)
24.05.2011 06:00 21,9 C 14,3 C 0,2 UV-I 0,0 C 46 % 71 % 0 % 1021,0 hPa 0,0 l/m 3,7 km/h (1 Bft) 0,00 h 0,00 h 4,6 km/h (1 Bft)
24.05.2011 07:00 21,8 C 14,0 C 0,2 UV-I 0,0 C 47 % 76 % 0 % 1021,8 hPa 0,1 l/m 3,8 km/h (1 Bft) 0,00 h 0,00 h 4,8 km/h (1 Bft)
24.05.2011 08:00 21,7 C 13,2 C 1,0 UV-I 0,1 C 48 % 77 % 4 % 1022,9 hPa 0,0 l/m 4,7 km/h (1 Bft) 0,00 h 0,00 h 6,6 km/h (2 Bft)
24.05.2011 09:00 21,8 C 14,7 C 5,5 UV-I 4,4 C 47 % 63 % 92 % 1023,6 hPa 0,0 l/m 7,2 km/h (2 Bft) 0,77 h 0,00 h 9,0 km/h (2 Bft)
24.05.2011 10:00 21,9 C 15,9 C 6,1 UV-I 4,8 C 46 % 54 % 100 % 1024,2 hPa 0,0 l/m 8,9 km/h (2 Bft) 1,00 h 0,00 h 11,8 km/h (2 Bft)
24.05.2011 11:00 22,0 C 16,8 C 5,8 UV-I 5,8 C 44 % 46 % 100 % 1024,6 hPa 0,0 l/m 9,4 km/h (2 Bft) 1,00 h 0,00 h 12,1 km/h (2 Bft)
24.05.2011 12:00 22,2 C 17,6 C 3,4 UV-I 4,5 C 42 % 42 % 97 % 1025,0 hPa 0,0 l/m 9,2 km/h (2 Bft) 1,00 h 0,00 h 13,2 km/h (3 Bft)
24.05.2011 13:00 22,5 C 18,1 C 4,0 UV-I 4,0 C 41 % 42 % 98 % 1025,9 hPa 0,0 l/m 8,9 km/h (2 Bft) 0,93 h 0,00 h 10,8 km/h (2 Bft)
24.05.2011 14:00 23,1 C 18,8 C 5,2 UV-I 4,4 C 40 % 38 % 100 % 1026,3 hPa 0,0 l/m 10,3 km/h (2 Bft) 1,00 h 0,00 h 11,9 km/h (2 Bft)
24.05.2011 15:00 24,0 C 19,2 C 5,8 UV-I 4,0 C 38 % 34 % 97 % 1027,1 hPa 0,0 l/m 9,6 km/h (2 Bft) 0,93 h 0,00 h 11,2 km/h (2 Bft)
24.05.2011 16:00 24,6 C 19,6 C 7,2 UV-I 4,0 C 37 % 30 % 99 % 1027,4 hPa 0,0 l/m 10,2 km/h (2 Bft) 1,00 h 0,00 h 10,8 km/h (2 Bft)
24.05.2011 17:00 25,1 C 19,5 C 6,5 UV-I 4,2 C 35 % 27 % 100 % 1027,8 hPa 0,0 l/m 10,8 km/h (2 Bft) 1,00 h 0,00 h 12,5 km/h (3 Bft)
24.05.2011 18:00 24,8 C 18,6 C 1,9 UV-I 1,4 C 34 % 31 % 40 % 1028,1 hPa 0,0 l/m 8,2 km/h (2 Bft) 0,17 h 0,00 h 10,0 km/h (2 Bft)
24.05.2011 19:00 24,1 C 17,7 C 1,2 UV-I 0,0 C 35 % 33 % 0 % 1027,7 hPa 0,0 l/m 6,7 km/h (2 Bft) 0,00 h 0,00 h 7,4 km/h (2 Bft)
24.05.2011 20:00 23,5 C 16,4 C 0,7 UV-I 0,0 C 36 % 38 % 0 % 1027,9 hPa 0,0 l/m 5,1 km/h (1 Bft) 0,00 h 0,00 h 5,4 km/h (1 Bft)
24.05.2011 21:00 22,9 C 14,6 C 0,2 UV-I 0,0 C 38 % 43 % 0 % 1028,5 hPa 0,0 l/m 1,7 km/h (1 Bft) 0,00 h 0,00 h 1,5 km/h (1 Bft)
24.05.2011 22:00 22,4 C 12,6 C 0,1 UV-I 0,0 C 39 % 50 % 0 % 1029,2 hPa 0,0 l/m 0,1 km/h (0 Bft) 0,00 h 0,00 h 0,0 km/h (0 Bft)
24.05.2011 23:00 22,0 C 10,5 C 0,1 UV-I 0,0 C 40 % 57 % 0 % 1029,5 hPa 0,0 l/m 0,0 km/h (0 Bft) 0,00 h 0,00 h 0,0 km/h (0 Bft)
25.05.2011 00:00 21,7 C 9,2 C 0,1 UV-I 0,0 C 40 % 65 % 0 % 1029,6 hPa 0,0 l/m 0,0 km/h (0 Bft) 0,00 h 0,00 h 0,0 km/h (0 Bft)
25.05.2011 01:00 21,4 C 8,2 C 0,1 UV-I 0,0 C 41 % 70 % 0 % 1029,4 hPa 0,0 l/m 0,0 km/h (0 Bft) 0,00 h 0,00 h 0,0 km/h (0 Bft)
25.05.2011 02:00 21,1 C 7,5 C 0,1 UV-I 0,0 C 41 % 73 % 0 % 1029,5 hPa 0,0 l/m 0,0 km/h (0 Bft) 0,00 h 0,00 h 0,0 km/h (0 Bft)
25.05.2011 03:00 20,9 C 8,1 C 0,0 UV-I 0,0 C 41 % 73 % 0 % 1029,3 hPa 0,0 l/m 0,0 km/h (0 Bft) 0,00 h 0,00 h 0,2 km/h (0 Bft)
25.05.2011 04:00 20,7 C 7,8 C 0,1 UV-I 0,0 C 41 % 72 % 0 % 1029,2 hPa 0,0 l/m 0,0 km/h (0 Bft) 0,00 h 0,00 h 0,1 km/h (0 Bft)
25.05.2011 05:00 20,5 C 7,3 C 0,2 UV-I 0,0 C 42 % 74 % 0 % 1029,1 hPa 0,0 l/m 0,0 km/h (0 Bft) 0,00 h 0,00 h 0,0 km/h (0 Bft)
25.05.2011 06:00 20,3 C 7,0 C 0,5 UV-I 0,0 C 42 % 75 % 0 % 1029,4 hPa 0,0 l/m 0,1 km/h (0 Bft) 0,00 h 0,00 h 0,2 km/h (0 Bft)
25.05.2011 07:00 20,2 C 8,5 C 1,1 UV-I 0,0 C 43 % 74 % 1 % 1029,5 hPa 0,0 l/m 1,6 km/h (1 Bft) 0,00 h 0,00 h 2,9 km/h (1 Bft)
25.05.2011 08:00 20,2 C 11,2 C 2,8 UV-I 4,5 C 43 % 69 % 75 % 1029,7 hPa 0,0 l/m 2,4 km/h (1 Bft) 0,70 h 0,00 h 3,1 km/h (1 Bft)
25.05.2011 09:00 20,3 C 14,9 C 8,5 UV-I 7,6 C 43 % 57 % 100 % 1029,7 hPa 0,0 l/m 1,9 km/h (1 Bft) 1,00 h 0,00 h 3,4 km/h (1 Bft)
25.05.2011 10:00 20,5 C 17,3 C 8,7 UV-I 6,4 C 43 % 46 % 100 % 1029,1 hPa 0,0 l/m 5,0 km/h (1 Bft) 1,00 h 0,00 h 7,3 km/h (2 Bft)
25.05.2011 11:00 20,6 C 18,8 C 5,8 UV-I 5,9 C 42 % 38 % 100 % 1028,5 hPa 0,0 l/m 5,9 km/h (2 Bft) 1,00 h 0,00 h 7,1 km/h (2 Bft)
25.05.2011 12:00 21,0 C 19,8 C 1,9 UV-I 5,8 C 42 % 36 % 100 % 1027,9 hPa 0,0 l/m 5,9 km/h (2 Bft) 1,00 h 0,00 h 6,7 km/h (2 Bft)
25.05.2011 13:00 21,5 C 21,3 C 3,3 UV-I 5,4 C 41 % 32 % 100 % 1027,3 hPa 0,0 l/m 6,0 km/h (2 Bft) 1,00 h 0,00 h 7,7 km/h (2 Bft)
25.05.2011 14:00 22,8 C 22,5 C 5,4 UV-I 5,4 C 39 % 27 % 100 % 1026,6 hPa 0,0 l/m 5,3 km/h (1 Bft) 1,00 h 0,00 h 7,3 km/h (2 Bft)
25.05.2011 15:00 24,2 C 23,4 C 7,5 UV-I 5,2 C 37 % 25 % 100 % 1026,0 hPa 0,0 l/m 5,5 km/h (1 Bft) 1,00 h 0,00 h 7,1 km/h (2 Bft)
25.05.2011 16:00 25,1 C 24,0 C 9,0 UV-I 4,7 C 35 % 22 % 100 % 1025,5 hPa 0,0 l/m 7,3 km/h (2 Bft) 1,00 h 0,00 h 8,3 km/h (2 Bft)
25.05.2011 17:00 25,6 C 24,0 C 7,4 UV-I 4,5 C 34 % 20 % 100 % 1024,3 hPa 0,0 l/m 7,4 km/h (2 Bft) 1,00 h 0,00 h 9,0 km/h (2 Bft)
25.05.2011 18:00 25,3 C 22,9 C 1,8 UV-I 1,6 C 33 % 21 % 43 % 1023,1 hPa 0,0 l/m 6,4 km/h (2 Bft) 0,27 h 0,00 h 6,9 km/h (2 Bft)
25.05.2011 19:00 24,5 C 22,3 C 1,3 UV-I 0,0 C 35 % 22 % 0 % 1021,6 hPa 0,0 l/m 4,9 km/h (1 Bft) 0,00 h 0,00 h 5,5 km/h (1 Bft)
25.05.2011 20:00 24,1 C 21,5 C 0,6 UV-I 0,0 C 36 % 25 % 0 % 1020,5 hPa 0,0 l/m 3,5 km/h (1 Bft) 0,00 h 0,00 h 5,3 km/h (1 Bft)
25.05.2011 21:00 23,8 C 19,9 C 0,2 UV-I 0,0 C 36 % 27 % 0 % 1019,8 hPa 0,0 l/m 1,1 km/h (1 Bft) 0,00 h 0,00 h 1,0 km/h (0 Bft)
25.05.2011 22:00 23,4 C 18,4 C 0,1 UV-I 0,0 C 37 % 30 % 0 % 1019,2 hPa 0,0 l/m 1,7 km/h (1 Bft) 0,00 h 0,00 h 3,2 km/h (1 Bft)
25.05.2011 23:00 23,0 C 17,3 C 0,1 UV-I 0,0 C 36 % 33 % 0 % 1018,2 hPa 0,0 l/m 3,7 km/h (1 Bft) 0,00 h 0,00 h 4,2 km/h (1 Bft)
26.05.2011 00:00 22,7 C 16,2 C 0,1 UV-I 0,0 C 37 % 36 % 0 % 1017,4 hPa 0,0 l/m 3,3 km/h (1 Bft) 0,00 h 0,17 h 4,0 km/h (1 Bft)
26.05.2011 01:00 22,4 C 15,2 C 0,1 UV-I 0,0 C 37 % 39 % 0 % 1016,4 hPa 0,0 l/m 3,5 km/h (1 Bft) 0,00 h 0,17 h 4,1 km/h (1 Bft)
26.05.2011 02:00 22,2 C 13,9 C 0,1 UV-I 0,0 C 37 % 43 % 0 % 1015,1 hPa 0,0 l/m 5,0 km/h (1 Bft) 0,00 h 0,23 h 6,4 km/h (2 Bft)
26.05.2011 03:00 22,0 C 12,7 C 0,1 UV-I 0,0 C 38 % 47 % 0 % 1013,9 hPa 0,0 l/m 3,9 km/h (1 Bft) 0,00 h 0,50 h 4,8 km/h (1 Bft)
26.05.2011 04:00 21,8 C 12,1 C 0,1 UV-I 0,0 C 38 % 49 % 0 % 1012,9 hPa 0,0 l/m 4,5 km/h (1 Bft) 0,00 h 0,17 h 5,5 km/h (1 Bft)
26.05.2011 05:00 21,6 C 11,9 C 0,1 UV-I 0,0 C 38 % 52 % 0 % 1011,7 hPa 0,0 l/m 6,5 km/h (2 Bft) 0,00 h 0,00 h 6,8 km/h (2 Bft)
26.05.2011 06:00 21,5 C 12,1 C 0,4 UV-I 0,0 C 38 % 54 % 0 % 1010,7 hPa 0,0 l/m 7,5 km/h (2 Bft) 0,00 h 0,00 h 8,7 km/h (2 Bft)
26.05.2011 07:00 21,5 C 13,4 C 1,0 UV-I 0,3 C 38 % 54 % 9 % 1009,9 hPa 0,0 l/m 9,8 km/h (2 Bft) 0,00 h 0,23 h 11,8 km/h (2 Bft)
26.05.2011 08:00 21,6 C 14,9 C 2,2 UV-I 1,5 C 39 % 54 % 42 % 1009,3 hPa 0,0 l/m 7,8 km/h (2 Bft) 0,10 h 0,00 h 8,6 km/h (2 Bft)
26.05.2011 09:00 21,7 C 18,6 C 7,3 UV-I 5,1 C 39 % 51 % 100 % 1008,3 hPa 0,0 l/m 8,7 km/h (2 Bft) 1,00 h 0,00 h 10,1 km/h (2 Bft)
26.05.2011 10:00 21,9 C 22,5 C 7,7 UV-I 5,9 C 40 % 42 % 100 % 1007,6 hPa 0,0 l/m 6,9 km/h (2 Bft) 1,00 h 0,00 h 8,7 km/h (2 Bft)
26.05.2011 11:00 22,2 C 24,0 C 5,6 UV-I 4,5 C 40 % 37 % 100 % 1007,6 hPa 0,0 l/m 10,0 km/h (2 Bft) 1,00 h 0,00 h 12,3 km/h (3 Bft)
26.05.2011 12:00 22,6 C 22,8 C 3,8 UV-I 4,3 C 40 % 40 % 100 % 1008,7 hPa 0,0 l/m 13,3 km/h (3 Bft) 1,00 h 0,00 h 16,4 km/h (3 Bft)
26.05.2011 13:00 23,0 C 19,8 C 4,6 UV-I 3,2 C 40 % 50 % 88 % 1010,3 hPa 0,0 l/m 13,5 km/h (3 Bft) 0,63 h 0,00 h 16,3 km/h (3 Bft)
26.05.2011 14:00 23,4 C 20,1 C 5,0 UV-I 3,8 C 40 % 46 % 97 % 1010,9 hPa 0,0 l/m 10,8 km/h (2 Bft) 0,93 h 0,00 h 11,3 km/h (2 Bft)
26.05.2011 15:00 23,9 C 20,2 C 4,9 UV-I 3,4 C 38 % 43 % 90 % 1011,2 hPa 0,0 l/m 10,6 km/h (2 Bft) 0,67 h 0,00 h 11,6 km/h (2 Bft)
26.05.2011 16:00 24,2 C 20,1 C 4,6 UV-I 2,7 C 36 % 40 % 76 % 1011,4 hPa 0,0 l/m 11,4 km/h (2 Bft) 0,33 h 0,00 h 12,5 km/h (3 Bft)
26.05.2011 17:00 24,2 C 19,3 C 3,4 UV-I 1,7 C 35 % 40 % 47 % 1011,5 hPa 0,0 l/m 11,7 km/h (2 Bft) 0,27 h 0,00 h 12,4 km/h (3 Bft)
26.05.2011 18:00 23,9 C 18,6 C 2,1 UV-I 1,2 C 35 % 42 % 34 % 1011,3 hPa 0,0 l/m 9,7 km/h (2 Bft) 0,00 h 0,00 h 11,4 km/h (2 Bft)
26.05.2011 19:00 23,5 C 18,2 C 1,2 UV-I 0,4 C 35 % 42 % 10 % 1011,0 hPa 0,0 l/m 10,2 km/h (2 Bft) 0,00 h 0,00 h 10,8 km/h (2 Bft)
26.05.2011 20:00 23,1 C 17,2 C 0,4 UV-I 0,0 C 36 % 47 % 0 % 1010,9 hPa 0,0 l/m 9,2 km/h (2 Bft) 0,00 h 0,00 h 10,4 km/h (2 Bft)
26.05.2011 21:00 22,6 C 16,0 C 0,2 UV-I 0,0 C 38 % 54 % 0 % 1011,0 hPa 0,0 l/m 7,2 km/h (2 Bft) 0,00 h 0,00 h 7,4 km/h (2 Bft)
26.05.2011 22:00 22,3 C 15,7 C 0,0 UV-I 0,0 C 39 % 56 % 0 % 1011,0 hPa 0,0 l/m 9,5 km/h (2 Bft) 0,00 h 0,00 h 11,2 km/h (2 Bft)
26.05.2011 23:00 22,0 C 14,9 C 0,0 UV-I 0,0 C 40 % 60 % 0 % 1011,3 hPa 0,0 l/m 7,8 km/h (2 Bft) 0,00 h 0,00 h 8,0 km/h (2 Bft)
27.05.2011 00:00 21,8 C 14,5 C 0,0 UV-I 0,0 C 41 % 63 % 0 % 1011,0 hPa 0,0 l/m 6,2 km/h (2 Bft) 0,00 h 0,00 h 9,7 km/h (2 Bft)
27.05.2011 01:00 21,6 C 14,0 C 0,0 UV-I 0,0 C 41 % 65 % 0 % 1010,9 hPa 0,0 l/m 7,1 km/h (2 Bft) 0,00 h 0,00 h 8,6 km/h (2 Bft)
27.05.2011 02:00 21,3 C 13,8 C 0,0 UV-I 0,0 C 42 % 66 % 0 % 1011,1 hPa 0,0 l/m 7,4 km/h (2 Bft) 0,00 h 0,00 h 8,4 km/h (2 Bft)
27.05.2011 03:00 21,2 C 13,7 C 0,1 UV-I 0,0 C 43 % 67 % 0 % 1011,0 hPa 0,0 l/m 6,2 km/h (2 Bft) 0,00 h 0,00 h 8,3 km/h (2 Bft)
27.05.2011 04:00 21,2 C 13,5 C 0,0 UV-I 0,0 C 43 % 69 % 0 % 1011,3 hPa 0,0 l/m 7,2 km/h (2 Bft) 0,00 h 0,03 h 7,7 km/h (2 Bft)
27.05.2011 05:00 21,0 C 13,3 C 0,1 UV-I 0,0 C 44 % 70 % 0 % 1011,5 hPa 0,0 l/m 5,3 km/h (1 Bft) 0,00 h 0,00 h 6,2 km/h (2 Bft)
27.05.2011 06:00 20,9 C 12,9 C 0,5 UV-I 0,0 C 44 % 72 % 0 % 1011,6 hPa 0,0 l/m 5,7 km/h (1 Bft) 0,00 h 0,00 h 6,8 km/h (2 Bft)
27.05.2011 07:00 20,9 C 12,8 C 0,9 UV-I 0,1 C 45 % 74 % 2 % 1012,1 hPa 0,0 l/m 6,3 km/h (2 Bft) 0,00 h 0,00 h 8,6 km/h (2 Bft)
27.05.2011 08:00 20,9 C 13,0 C 0,8 UV-I 0,3 C 45 % 72 % 8 % 1012,6 hPa 0,0 l/m 6,1 km/h (2 Bft) 0,00 h 0,00 h 7,6 km/h (2 Bft)
27.05.2011 09:00 20,9 C 13,2 C 1,0 UV-I 0,4 C 45 % 71 % 12 % 1013,2 hPa 0,0 l/m 6,6 km/h (2 Bft) 0,00 h 0,00 h 7,4 km/h (2 Bft)
27.05.2011 10:00 20,9 C 13,3 C 1,3 UV-I 0,6 C 45 % 72 % 17 % 1013,9 hPa 0,3 l/m 6,2 km/h (2 Bft) 0,00 h 0,20 h 8,3 km/h (2 Bft)
27.05.2011 11:00 21,0 C 12,3 C 1,6 UV-I 0,0 C 46 % 83 % 1 % 1014,5 hPa 0,7 l/m 4,6 km/h (1 Bft) 0,00 h 0,70 h 5,8 km/h (2 Bft)
27.05.2011 12:00 21,1 C 12,8 C 2,7 UV-I 1,9 C 48 % 85 % 54 % 1015,0 hPa 0,0 l/m 4,9 km/h (1 Bft) 0,00 h 0,00 h 5,6 km/h (1 Bft)
27.05.2011 13:00 21,5 C 14,8 C 3,7 UV-I 4,0 C 48 % 75 % 88 % 1015,0 hPa 0,0 l/m 7,6 km/h (2 Bft) 0,67 h 0,03 h 8,7 km/h (2 Bft)
27.05.2011 14:00 21,8 C 14,6 C 1,9 UV-I 1,4 C 47 % 74 % 39 % 1015,6 hPa 0,0 l/m 4,8 km/h (1 Bft) 0,13 h 0,17 h 5,0 km/h (1 Bft)
27.05.2011 15:00 21,9 C 14,5 C 2,0 UV-I 0,9 C 47 % 76 % 27 % 1016,0 hPa 0,7 l/m 3,7 km/h (1 Bft) 0,00 h 0,17 h 4,9 km/h (1 Bft)
27.05.2011 16:00 22,5 C 16,1 C 4,2 UV-I 3,2 C 46 % 66 % 79 % 1016,8 hPa 0,0 l/m 6,0 km/h (2 Bft) 0,53 h 0,00 h 7,4 km/h (2 Bft)
27.05.2011 17:00 22,6 C 15,8 C 1,7 UV-I 0,8 C 45 % 59 % 24 % 1017,2 hPa 0,0 l/m 5,1 km/h (1 Bft) 0,00 h 0,00 h 5,2 km/h (1 Bft)
27.05.2011 18:00 22,6 C 16,2 C 2,0 UV-I 1,5 C 45 % 56 % 42 % 1017,2 hPa 0,0 l/m 6,1 km/h (2 Bft) 0,23 h 0,00 h 7,6 km/h (2 Bft)
27.05.2011 19:00 22,4 C 15,9 C 1,3 UV-I 0,0 C 44 % 53 % 1 % 1017,8 hPa 0,0 l/m 6,4 km/h (2 Bft) 0,00 h 0,00 h 7,2 km/h (2 Bft)
27.05.2011 20:00 22,0 C 15,1 C 0,7 UV-I 0,0 C 43 % 54 % 0 % 1018,2 hPa 0,0 l/m 3,3 km/h (1 Bft) 0,00 h 0,00 h 3,8 km/h (1 Bft)
27.05.2011 21:00 21,6 C 13,8 C 0,2 UV-I 0,0 C 43 % 59 % 0 % 1018,7 hPa 0,0 l/m 0,9 km/h (0 Bft) 0,00 h 0,00 h 1,5 km/h (1 Bft)
27.05.2011 22:00 21,2 C 13,0 C 0,1 UV-I 0,0 C 44 % 63 % 0 % 1019,0 hPa 0,0 l/m 1,0 km/h (0 Bft) 0,00 h 0,00 h 1,2 km/h (1 Bft)
27.05.2011 23:00 20,9 C 11,6 C 0,1 UV-I 0,0 C 45 % 68 % 0 % 1019,5 hPa 0,0 l/m 0,1 km/h (0 Bft) 0,00 h 0,00 h 0,0 km/h (0 Bft)
28.05.2011 00:00 20,6 C 10,1 C 0,1 UV-I 0,0 C 45 % 73 % 0 % 1018,8 hPa 0,0 l/m 0,0 km/h (0 Bft) 0,00 h 0,00 h 0,0 km/h (0 Bft)
28.05.2011 01:00 20,3 C 9,3 C 0,1 UV-I 0,0 C 46 % 78 % 0 % 1018,7 hPa 0,0 l/m 0,0 km/h (0 Bft) 0,00 h 0,00 h 0,0 km/h (0 Bft)
28.05.2011 02:00 20,2 C 10,0 C 0,1 UV-I 0,0 C 46 % 79 % 0 % 1018,7 hPa 0,0 l/m 0,1 km/h (0 Bft) 0,00 h 0,00 h 0,4 km/h (0 Bft)
28.05.2011 03:00 20,1 C 10,4 C 0,1 UV-I 0,0 C 47 % 80 % 0 % 1018,7 hPa 0,0 l/m 0,0 km/h (0 Bft) 0,00 h 0,00 h 0,1 km/h (0 Bft)
28.05.2011 04:00 20,0 C 10,5 C 0,1 UV-I 0,0 C 48 % 82 % 0 % 1018,5 hPa 0,0 l/m 0,0 km/h (0 Bft) 0,00 h 0,00 h 0,0 km/h (0 Bft)
28.05.2011 05:00 20,0 C 10,5 C 0,1 UV-I 0,0 C 48 % 84 % 0 % 1018,1 hPa 0,0 l/m 0,6 km/h (0 Bft) 0,00 h 0,00 h 1,2 km/h (1 Bft)
28.05.2011 06:00 19,9 C 10,3 C 0,4 UV-I 0,0 C 49 % 85 % 0 % 1018,0 hPa 0,0 l/m 0,5 km/h (0 Bft) 0,00 h 0,00 h 0,7 km/h (0 Bft)
28.05.2011 07:00 19,9 C 10,9 C 1,1 UV-I 0,1 C 49 % 86 % 4 % 1018,1 hPa 0,0 l/m 2,4 km/h (1 Bft) 0,00 h 0,00 h 3,6 km/h (1 Bft)
28.05.2011 08:00 20,0 C 12,4 C 2,8 UV-I 2,9 C 49 % 82 % 75 % 1018,1 hPa 0,0 l/m 4,5 km/h (1 Bft) 0,47 h 0,00 h 6,5 km/h (2 Bft)
28.05.2011 09:00 20,0 C 14,2 C 6,9 UV-I 5,3 C 48 % 71 % 100 % 1018,1 hPa 0,0 l/m 6,8 km/h (2 Bft) 1,00 h 0,00 h 8,8 km/h (2 Bft)
28.05.2011 10:00 20,4 C 14,9 C 4,7 UV-I 3,5 C 47 % 64 % 84 % 1018,0 hPa 0,0 l/m 7,9 km/h (2 Bft) 0,63 h 0,00 h 9,1 km/h (2 Bft)
28.05.2011 11:00 20,6 C 16,1 C 5,7 UV-I 5,5 C 45 % 57 % 100 % 1017,4 hPa 0,0 l/m 9,6 km/h (2 Bft) 1,00 h 0,00 h 11,0 km/h (2 Bft)
28.05.2011 12:00 20,9 C 17,3 C 3,7 UV-I 5,4 C 44 % 50 % 100 % 1016,9 hPa 0,0 l/m 9,7 km/h (2 Bft) 1,00 h 0,00 h 10,6 km/h (2 Bft)
28.05.2011 13:00 21,3 C 18,1 C 4,8 UV-I 4,8 C 42 % 47 % 100 % 1016,4 hPa 0,0 l/m 9,2 km/h (2 Bft) 1,00 h 0,00 h 10,6 km/h (2 Bft)
28.05.2011 14:00 22,0 C 18,4 C 4,8 UV-I 4,1 C 40 % 46 % 100 % 1016,1 hPa 0,0 l/m 8,1 km/h (2 Bft) 1,00 h 0,00 h 8,4 km/h (2 Bft)
28.05.2011 15:00 22,2 C 18,4 C 3,8 UV-I 3,0 C 40 % 47 % 86 % 1015,7 hPa 0,0 l/m 7,4 km/h (2 Bft) 0,60 h 0,00 h 8,6 km/h (2 Bft)
28.05.2011 16:00 22,6 C 19,2 C 5,1 UV-I 4,0 C 40 % 44 % 94 % 1015,4 hPa 0,0 l/m 6,9 km/h (2 Bft) 0,87 h 0,00 h 8,3 km/h (2 Bft)
28.05.2011 17:00 22,7 C 18,9 C 2,1 UV-I 1,6 C 39 % 44 % 44 % 1014,9 hPa 0,0 l/m 6,7 km/h (2 Bft) 0,00 h 0,00 h 8,7 km/h (2 Bft)
28.05.2011 18:00 22,5 C 19,0 C 1,6 UV-I 1,0 C 39 % 45 % 29 % 1014,4 hPa 0,0 l/m 6,7 km/h (2 Bft) 0,00 h 0,00 h 7,0 km/h (2 Bft)
28.05.2011 19:00 22,3 C 19,0 C 1,1 UV-I 0,4 C 40 % 45 % 12 % 1013,9 hPa 0,0 l/m 6,5 km/h (2 Bft) 0,00 h 0,00 h 7,3 km/h (2 Bft)
28.05.2011 20:00 22,2 C 18,0 C 0,4 UV-I 0,0 C 40 % 50 % 0 % 1014,0 hPa 0,0 l/m 4,8 km/h (1 Bft) 0,00 h 0,00 h 5,0 km/h (1 Bft)
28.05.2011 21:00 21,8 C 16,8 C 0,1 UV-I 0,0 C 42 % 56 % 0 % 1013,9 hPa 0,0 l/m 0,9 km/h (0 Bft) 0,00 h 0,00 h 1,1 km/h (0 Bft)
28.05.2011 22:00 21,6 C 15,9 C 0,1 UV-I 0,0 C 43 % 60 % 0 % 1013,8 hPa 0,0 l/m 0,0 km/h (0 Bft) 0,00 h 0,00 h 0,0 km/h (0 Bft)
28.05.2011 23:00 21,3 C 15,3 C 0,1 UV-I 0,0 C 44 % 64 % 0 % 1013,9 hPa 0,0 l/m 1,3 km/h (1 Bft) 0,00 h 0,00 h 1,1 km/h (0 Bft)
29.05.2011 00:00 21,1 C 15,0 C 0,1 UV-I 0,0 C 44 % 65 % 0 % 1014,2 hPa 0,0 l/m 1,0 km/h (0 Bft) 0,00 h 0,00 h 2,3 km/h (1 Bft)
29.05.2011 01:00 21,1 C 14,7 C 0,1 UV-I 0,0 C 45 % 66 % 0 % 1014,0 hPa 0,0 l/m 2,6 km/h (1 Bft) 0,00 h 0,00 h 4,1 km/h (1 Bft)
29.05.2011 02:00 20,9 C 14,0 C 0,1 UV-I 0,0 C 45 % 67 % 0 % 1014,1 hPa 0,0 l/m 3,1 km/h (1 Bft) 0,00 h 0,17 h 3,8 km/h (1 Bft)
29.05.2011 03:00 20,8 C 13,4 C 0,1 UV-I 0,0 C 46 % 71 % 0 % 1014,5 hPa 0,0 l/m 4,8 km/h (1 Bft) 0,00 h 0,00 h 5,3 km/h (1 Bft)
29.05.2011 04:00 20,7 C 13,3 C 0,1 UV-I 0,0 C 46 % 72 % 0 % 1014,5 hPa 0,0 l/m 3,6 km/h (1 Bft) 0,00 h 0,00 h 4,4 km/h (1 Bft)
29.05.2011 05:00 20,6 C 13,1 C 0,1 UV-I 0,0 C 47 % 74 % 0 % 1014,2 hPa 0,0 l/m 2,9 km/h (1 Bft) 0,00 h 0,00 h 3,5 km/h (1 Bft)
29.05.2011 06:00 20,5 C 13,1 C 0,3 UV-I 0,0 C 47 % 75 % 0 % 1014,2 hPa 0,0 l/m 3,4 km/h (1 Bft) 0,00 h 0,00 h 5,1 km/h (1 Bft)
29.05.2011 07:00 20,5 C 13,4 C 0,7 UV-I 0,2 C 47 % 75 % 6 % 1014,7 hPa 0,0 l/m 3,9 km/h (1 Bft) 0,00 h 0,00 h 4,8 km/h (1 Bft)
29.05.2011 08:00 20,6 C 14,0 C 1,1 UV-I 0,8 C 48 % 76 % 23 % 1015,0 hPa 0,0 l/m 4,5 km/h (1 Bft) 0,00 h 0,00 h 4,6 km/h (1 Bft)
29.05.2011 09:00 20,8 C 14,5 C 1,4 UV-I 0,9 C 49 % 75 % 27 % 1015,6 hPa 0,0 l/m 6,4 km/h (2 Bft) 0,00 h 0,00 h 7,2 km/h (2 Bft)
29.05.2011 10:00 20,9 C 15,5 C 2,0 UV-I 1,5 C 49 % 71 % 44 % 1016,0 hPa 0,0 l/m 6,3 km/h (2 Bft) 0,00 h 0,00 h 7,1 km/h (2 Bft)
29.05.2011 11:00 21,2 C 16,6 C 3,8 UV-I 3,1 C 49 % 68 % 82 % 1016,1 hPa 0,0 l/m 7,7 km/h (2 Bft) 0,50 h 0,00 h 8,8 km/h (2 Bft)
29.05.2011 12:00 21,4 C 17,8 C 3,7 UV-I 4,0 C 48 % 63 % 97 % 1016,1 hPa 0,0 l/m 8,8 km/h (2 Bft) 1,00 h 0,00 h 11,2 km/h (2 Bft)
29.05.2011 13:00 21,8 C 19,7 C 4,8 UV-I 5,1 C 48 % 57 % 100 % 1015,9 hPa 0,0 l/m 8,6 km/h (2 Bft) 1,00 h 0,00 h 10,2 km/h (2 Bft)
29.05.2011 14:00 22,7 C 21,0 C 5,8 UV-I 4,8 C 46 % 53 % 100 % 1015,8 hPa 0,0 l/m 8,7 km/h (2 Bft) 1,00 h 0,00 h 11,1 km/h (2 Bft)
29.05.2011 15:00 23,9 C 22,5 C 5,8 UV-I 4,9 C 44 % 48 % 100 % 1016,1 hPa 0,0 l/m 7,9 km/h (2 Bft) 1,00 h 0,00 h 9,2 km/h (2 Bft)
29.05.2011 16:00 24,7 C 23,5 C 5,9 UV-I 4,6 C 42 % 46 % 100 % 1016,2 hPa 0,0 l/m 9,1 km/h (2 Bft) 1,00 h 0,00 h 11,2 km/h (2 Bft)
29.05.2011 17:00 25,2 C 24,1 C 6,8 UV-I 4,4 C 42 % 45 % 100 % 1015,9 hPa 0,0 l/m 8,6 km/h (2 Bft) 1,00 h 0,00 h 8,8 km/h (2 Bft)
29.05.2011 18:00 25,2 C 23,8 C 2,6 UV-I 2,2 C 42 % 47 % 58 % 1015,6 hPa 0,0 l/m 6,0 km/h (2 Bft) 0,27 h 0,00 h 7,0 km/h (2 Bft)
29.05.2011 19:00 24,6 C 23,5 C 1,6 UV-I 0,2 C 43 % 48 % 5 % 1015,1 hPa 0,0 l/m 5,9 km/h (2 Bft) 0,00 h 0,00 h 7,2 km/h (2 Bft)
29.05.2011 20:00 24,2 C 22,9 C 0,8 UV-I 0,0 C 44 % 48 % 0 % 1015,3 hPa 0,0 l/m 2,9 km/h (1 Bft) 0,00 h 0,00 h 4,0 km/h (1 Bft)
29.05.2011 21:00 23,9 C 21,7 C 0,3 UV-I 0,0 C 45 % 52 % 0 % 1015,4 hPa 0,0 l/m 0,3 km/h (0 Bft) 0,00 h 0,00 h 0,2 km/h (0 Bft)
29.05.2011 22:00 23,6 C 19,6 C 0,0 UV-I 0,0 C 45 % 58 % 0 % 1015,7 hPa 0,0 l/m 0,0 km/h (0 Bft) 0,00 h 0,10 h 0,0 km/h (0 Bft)
29.05.2011 23:00 23,2 C 17,8 C 0,0 UV-I 0,0 C 46 % 65 % 0 % 1015,8 hPa 0,0 l/m 0,0 km/h (0 Bft) 0,00 h 0,00 h 0,0 km/h (0 Bft)
Min-Datum _ 28.05.11 25.05.11 23.05.11 23.05.11 25.05.11 25.05.11 23.05.11 26.05.11 - 23.05.11 - - 23.05.11
_ Min-Zeit 06:18 06:34 00:54 00:00 17:52 17:44 00:00 10:26 - 20:42 - - 00:00
Minimum _ 19,9 C 6,8 C 0,0 UV-I 0,0 C 33 % 18 % 0 % 1007,4 hPa - 0,0 km/h (0 Bft) - - 0,0 km/h (0 Bft)
Max-Datum _ 25.05.11 25.05.11 25.05.11 25.05.11 28.05.11 27.05.11 23.05.11 25.05.11 27.05.11 26.05.11 23.05.11 23.05.11 26.05.11
_ Max-Zeit 17:48 16:52 17:18 09:24 06:00 11:50 08:24 09:06 11:02 13:02 08:22 14:28 13:20
Maximum _ 25,7 C 24,5 C 9,8 UV-I 8,5 C 49 % 86 % 100 % 1029,9 hPa 0,7 l/m 18,9 km/h
SO (3 Bft)
0,03 h 0,03 h 53,8 km/h
SO (7 Bft)
Durchschnitt _ 22,1 C 16,2 C 2,2 UV-I 1,7 C 42 % 56 % 36 % 1018,9 hPa #1,7 l/m 5,0 km/h (1 Bft) #51:42 h #5:06 h 6,0 km/h (2 Bft)
© 2012 W. Hausmann